createdAt,value
2018-08-28T00:00:10.117Z,17.71
2018-08-28T00:01:10.044Z,17.66
2018-08-28T00:02:09.970Z,17.69
2018-08-28T00:03:09.898Z,17.71
2018-08-28T00:04:09.823Z,17.74
2018-08-28T00:05:09.750Z,17.73
2018-08-28T00:06:09.676Z,17.58
2018-08-28T00:07:09.603Z,17.70
2018-08-28T00:08:09.528Z,17.66
2018-08-28T00:09:09.455Z,17.63
2018-08-28T00:10:09.383Z,17.57
2018-08-28T00:11:09.308Z,17.57
2018-08-28T00:12:09.233Z,17.48
2018-08-28T00:13:09.160Z,17.54
2018-08-28T00:14:09.090Z,17.50
2018-08-28T00:15:09.015Z,17.46
2018-08-28T00:16:08.938Z,17.53
2018-08-28T00:17:08.896Z,17.47
2018-08-28T00:18:08.793Z,17.50
2018-08-28T00:19:08.721Z,17.43
2018-08-28T00:20:08.649Z,17.55
2018-08-28T00:21:08.571Z,17.51
2018-08-28T00:22:08.495Z,17.50
2018-08-28T00:23:08.423Z,17.63
2018-08-28T00:24:08.348Z,17.60
2018-08-28T00:25:08.276Z,17.60
2018-08-28T00:26:08.201Z,17.64
2018-08-28T00:27:08.128Z,17.57
2018-08-28T00:28:08.054Z,17.57
2018-08-28T00:29:07.983Z,17.54
2018-08-28T00:30:07.907Z,17.43
2018-08-28T00:31:07.832Z,17.43
2018-08-28T00:32:07.758Z,17.36
2018-08-28T00:33:07.684Z,17.47
2018-08-28T00:34:07.610Z,17.35
2018-08-28T00:35:07.538Z,17.25
2018-08-28T00:36:07.462Z,17.25
2018-08-28T00:37:07.388Z,17.08
2018-08-28T00:38:07.316Z,17.21
2018-08-28T00:39:07.242Z,17.07
2018-08-28T00:40:07.167Z,17.03
2018-08-28T00:41:07.092Z,17.00
2018-08-28T00:42:07.019Z,16.84
2018-08-28T00:43:06.946Z,16.77
2018-08-28T00:44:06.873Z,16.78
2018-08-28T00:45:06.798Z,16.71
2018-08-28T00:46:06.723Z,16.62
2018-08-28T00:47:06.651Z,16.55
2018-08-28T00:48:06.575Z,16.56
2018-08-28T00:49:06.500Z,16.40
2018-08-28T00:50:06.428Z,16.27
2018-08-28T00:51:06.353Z,16.34
2018-08-28T00:52:06.276Z,16.16
2018-08-28T00:53:06.203Z,16.08
2018-08-28T00:54:06.129Z,16.08
2018-08-28T00:55:06.057Z,15.92
2018-08-28T00:56:05.981Z,15.88
2018-08-28T00:57:05.906Z,15.70
2018-08-28T00:58:05.832Z,15.63
2018-08-28T00:59:05.757Z,15.66
2018-08-28T01:00:05.682Z,15.66
2018-08-28T01:01:05.608Z,15.53
2018-08-28T01:02:05.568Z,15.49
2018-08-28T01:03:05.459Z,15.38
2018-08-28T01:04:05.385Z,15.38
2018-08-28T01:05:05.310Z,15.26
2018-08-28T01:06:05.235Z,15.28
2018-08-28T01:07:05.160Z,15.15
2018-08-28T01:08:05.084Z,15.13
2018-08-28T01:09:05.011Z,15.15
2018-08-28T01:10:04.936Z,15.13
2018-08-28T01:11:04.862Z,15.13
2018-08-28T01:12:04.786Z,15.03
2018-08-28T01:13:04.711Z,15.05
2018-08-28T01:14:04.635Z,14.94
2018-08-28T01:15:04.561Z,14.87
2018-08-28T01:16:04.487Z,14.90
2018-08-28T01:17:04.412Z,14.87
2018-08-28T01:18:04.335Z,14.84
2018-08-28T01:19:04.262Z,14.71
2018-08-28T01:20:04.192Z,14.75
2018-08-28T01:21:04.110Z,14.69
2018-08-28T01:22:04.035Z,14.60
2018-08-28T01:23:03.964Z,14.59
2018-08-28T01:24:03.884Z,14.59
2018-08-28T01:25:03.808Z,14.57
2018-08-28T01:26:03.734Z,14.59
2018-08-28T01:27:03.658Z,14.60
2018-08-28T01:28:03.582Z,14.57
2018-08-28T01:29:03.508Z,14.61
2018-08-28T01:30:03.432Z,14.57
2018-08-28T01:31:03.357Z,14.61
2018-08-28T01:32:03.280Z,14.59
2018-08-28T01:33:03.208Z,14.64
2018-08-28T01:34:03.133Z,14.53
2018-08-28T01:35:03.056Z,14.57
2018-08-28T01:36:02.982Z,14.60
2018-08-28T01:37:02.906Z,14.53
2018-08-28T01:38:02.828Z,14.49
2018-08-28T01:39:02.754Z,14.49
2018-08-28T01:40:02.680Z,14.46
2018-08-28T01:41:02.601Z,14.47
2018-08-28T01:42:02.526Z,14.44
2018-08-28T01:43:02.451Z,14.41
2018-08-28T01:44:02.373Z,14.50
2018-08-28T01:45:02.298Z,14.47
2018-08-28T01:46:02.224Z,14.36
2018-08-28T01:47:02.147Z,14.49
2018-08-28T01:48:02.073Z,14.46
2018-08-28T01:49:01.996Z,14.54
2018-08-28T01:50:01.920Z,14.50
2018-08-28T01:51:01.845Z,14.35
2018-08-28T01:52:01.779Z,14.41
2018-08-28T01:53:01.694Z,14.29
2018-08-28T01:54:01.617Z,14.17
2018-08-28T01:55:01.543Z,14.16
2018-08-28T01:56:01.465Z,14.17
2018-08-28T01:57:01.390Z,14.14
2018-08-28T01:58:01.314Z,14.13
2018-08-28T01:59:01.239Z,14.14
2018-08-28T02:00:01.162Z,14.09
2018-08-28T02:01:01.090Z,14.03
2018-08-28T02:02:01.010Z,14.03
2018-08-28T02:03:00.936Z,13.96
2018-08-28T02:04:00.858Z,13.94
2018-08-28T02:05:00.782Z,14.01
2018-08-28T02:06:00.706Z,14.07
2018-08-28T02:07:00.631Z,14.03
2018-08-28T02:08:00.554Z,13.92
2018-08-28T02:09:00.478Z,13.96
2018-08-28T02:10:00.403Z,14.01
2018-08-28T02:11:00.328Z,13.95
2018-08-28T02:12:00.251Z,13.98
2018-08-28T02:13:00.217Z,13.89
2018-08-28T02:14:00.097Z,13.91
2018-08-28T02:15:00.023Z,13.84
2018-08-28T02:15:59.946Z,13.86
2018-08-28T02:16:59.869Z,13.76
2018-08-28T02:17:59.793Z,13.74
2018-08-28T02:18:59.718Z,13.70
2018-08-28T02:19:59.643Z,13.63
2018-08-28T02:20:59.564Z,13.65
2018-08-28T02:21:59.489Z,13.65
2018-08-28T02:22:59.413Z,13.56
2018-08-28T02:23:59.336Z,13.56
2018-08-28T02:24:59.259Z,13.56
2018-08-28T02:25:59.184Z,13.56
2018-08-28T02:26:59.106Z,13.55
2018-08-28T02:27:59.029Z,13.43
2018-08-28T02:28:58.953Z,13.40
2018-08-28T02:29:58.877Z,13.44
2018-08-28T02:30:58.801Z,13.43
2018-08-28T02:31:58.726Z,13.38
2018-08-28T02:32:58.647Z,13.27
2018-08-28T02:33:58.571Z,13.24
2018-08-28T02:34:58.495Z,13.21
2018-08-28T02:35:58.420Z,13.21
2018-08-28T02:36:58.342Z,13.22
2018-08-28T02:37:58.266Z,13.17
2018-08-28T02:38:58.190Z,13.07
2018-08-28T02:39:58.112Z,13.06
2018-08-28T02:40:58.035Z,13.14
2018-08-28T02:41:57.962Z,13.07
2018-08-28T02:42:57.883Z,12.99
2018-08-28T02:43:57.805Z,13.14
2018-08-28T02:44:57.730Z,13.07
2018-08-28T02:45:57.655Z,13.10
2018-08-28T02:46:57.577Z,13.07
2018-08-28T02:47:57.505Z,13.07
2018-08-28T02:48:57.422Z,13.04
2018-08-28T02:49:57.347Z,13.06
2018-08-28T02:50:57.270Z,13.04
2018-08-28T02:51:57.204Z,13.03
2018-08-28T02:52:57.114Z,13.09
2018-08-28T02:53:57.040Z,13.04
2018-08-28T02:54:56.962Z,13.02
2018-08-28T02:55:56.884Z,13.00
2018-08-28T02:56:56.806Z,12.97
2018-08-28T02:57:56.731Z,12.96
2018-08-28T02:58:56.660Z,12.86
2018-08-28T02:59:56.578Z,12.92
2018-08-28T03:00:56.500Z,12.89
2018-08-28T03:01:56.424Z,12.92
2018-08-28T03:02:56.423Z,12.85
2018-08-28T03:03:56.270Z,12.70
2018-08-28T03:04:56.196Z,12.78
2018-08-28T03:05:56.115Z,12.77
2018-08-28T03:06:56.042Z,12.77
2018-08-28T03:07:55.962Z,12.77
2018-08-28T03:08:55.884Z,12.64
2018-08-28T03:09:55.807Z,12.64
2018-08-28T03:10:55.732Z,12.82
2018-08-28T03:11:55.653Z,12.61
2018-08-28T03:12:55.580Z,12.59
2018-08-28T03:13:55.500Z,12.61
2018-08-28T03:14:55.422Z,12.55
2018-08-28T03:15:55.366Z,12.56
2018-08-28T03:16:55.272Z,12.64
2018-08-28T03:17:55.190Z,12.59
2018-08-28T03:18:55.114Z,12.61
2018-08-28T03:19:55.037Z,12.59
2018-08-28T03:20:54.959Z,12.63
2018-08-28T03:21:54.882Z,12.61
2018-08-28T03:22:54.807Z,12.59
2018-08-28T03:23:54.726Z,12.55
2018-08-28T03:24:54.650Z,12.64
2018-08-28T03:25:54.573Z,12.55
2018-08-28T03:26:54.498Z,12.63
2018-08-28T03:27:54.419Z,12.56
2018-08-28T03:28:54.350Z,12.49
2018-08-28T03:29:54.265Z,12.53
2018-08-28T03:30:54.187Z,12.45
2018-08-28T03:31:54.110Z,12.42
2018-08-28T03:32:54.032Z,12.49
2018-08-28T03:33:53.954Z,12.42
2018-08-28T03:34:53.879Z,12.45
2018-08-28T03:35:53.801Z,12.44
2018-08-28T03:36:53.723Z,12.44
2018-08-28T03:37:53.645Z,12.39
2018-08-28T03:38:53.568Z,12.41
2018-08-28T03:39:53.490Z,12.34
2018-08-28T03:40:53.414Z,12.41
2018-08-28T03:41:53.335Z,12.33
2018-08-28T03:42:53.262Z,12.34
2018-08-28T03:43:53.181Z,12.39
2018-08-28T03:44:53.244Z,12.42
2018-08-28T03:45:53.027Z,12.36
2018-08-28T03:46:52.949Z,12.44
2018-08-28T03:47:52.873Z,12.45
2018-08-28T03:48:52.795Z,12.46
2018-08-28T03:49:52.716Z,12.44
2018-08-28T03:50:52.640Z,12.34
2018-08-28T03:51:52.562Z,12.24
2018-08-28T03:52:52.484Z,12.18
2018-08-28T03:53:52.409Z,12.31
2018-08-28T03:54:52.331Z,12.28
2018-08-28T03:55:52.257Z,12.19
2018-08-28T03:56:52.175Z,12.24
2018-08-28T03:57:52.097Z,12.18
2018-08-28T03:58:52.021Z,12.19
2018-08-28T03:59:51.942Z,12.26
2018-08-28T04:00:51.865Z,12.15
2018-08-28T04:01:51.788Z,12.16
2018-08-28T04:02:51.710Z,12.23
2018-08-28T04:03:51.634Z,12.26
2018-08-28T04:04:51.556Z,12.21
2018-08-28T04:05:51.478Z,12.15
2018-08-28T04:06:51.400Z,12.09
2018-08-28T04:07:51.322Z,12.16
2018-08-28T04:08:51.244Z,12.16
2018-08-28T04:09:51.168Z,12.09
2018-08-28T04:10:51.090Z,12.09
2018-08-28T04:11:51.019Z,12.08
2018-08-28T04:12:50.936Z,12.13
2018-08-28T04:13:50.857Z,12.09
2018-08-28T04:14:50.780Z,12.13
2018-08-28T04:15:50.701Z,12.12
2018-08-28T04:16:50.624Z,12.13
2018-08-28T04:17:50.549Z,12.12
2018-08-28T04:18:50.470Z,12.15
2018-08-28T04:19:50.392Z,12.03
2018-08-28T04:20:50.315Z,12.05
2018-08-28T04:21:50.237Z,12.00
2018-08-28T04:22:50.160Z,11.95
2018-08-28T04:23:50.081Z,12.03
2018-08-28T04:24:50.005Z,12.06
2018-08-28T04:25:49.926Z,11.98
2018-08-28T04:26:49.850Z,11.98
2018-08-28T04:27:49.770Z,11.89
2018-08-28T04:28:49.695Z,11.93
2018-08-28T04:29:49.616Z,11.84
2018-08-28T04:30:49.568Z,11.78
2018-08-28T04:31:49.460Z,11.81
2018-08-28T04:32:49.383Z,11.90
2018-08-28T04:33:49.312Z,11.75
2018-08-28T04:34:49.228Z,11.78
2018-08-28T04:35:49.149Z,11.89
2018-08-28T04:36:49.071Z,11.93
2018-08-28T04:37:48.994Z,11.90
2018-08-28T04:38:48.917Z,11.90
2018-08-28T04:39:48.838Z,11.83
2018-08-28T04:40:48.760Z,11.81
2018-08-28T04:41:48.695Z,11.83
2018-08-28T04:42:48.606Z,11.75
2018-08-28T04:43:48.527Z,11.87
2018-08-28T04:44:48.450Z,11.81
2018-08-28T04:45:48.373Z,11.90
2018-08-28T04:46:48.295Z,11.83
2018-08-28T04:47:48.216Z,11.83
2018-08-28T04:48:48.165Z,11.76
2018-08-28T04:49:48.061Z,11.79
2018-08-28T04:50:47.983Z,11.76
2018-08-28T04:51:47.906Z,11.81
2018-08-28T04:52:47.827Z,11.76
2018-08-28T04:53:47.750Z,11.83
2018-08-28T04:54:47.676Z,11.83
2018-08-28T04:55:47.594Z,11.83
2018-08-28T04:56:47.516Z,11.72
2018-08-28T04:57:47.439Z,11.69
2018-08-28T04:58:47.360Z,11.69
2018-08-28T04:59:47.282Z,11.78
2018-08-28T05:00:47.274Z,11.83
2018-08-28T05:01:47.128Z,11.69
2018-08-28T05:02:47.050Z,11.69
2018-08-28T05:03:46.971Z,11.75
2018-08-28T05:04:46.895Z,11.72
2018-08-28T05:05:46.817Z,11.84
2018-08-28T05:06:46.739Z,11.87
2018-08-28T05:07:46.760Z,11.78
2018-08-28T05:08:46.582Z,11.74
2018-08-28T05:09:46.505Z,11.76
2018-08-28T05:10:46.428Z,11.78
2018-08-28T05:11:46.407Z,11.79
2018-08-28T05:12:46.276Z,11.78
2018-08-28T05:13:46.196Z,11.78
2018-08-28T05:14:46.129Z,11.83
2018-08-28T05:15:46.084Z,11.81
2018-08-28T05:16:45.959Z,11.84
2018-08-28T05:17:45.882Z,11.81
2018-08-28T05:18:45.804Z,11.94
2018-08-28T05:19:45.726Z,11.93
2018-08-28T05:20:45.648Z,11.94
2018-08-28T05:21:45.570Z,11.89
2018-08-28T05:22:45.493Z,11.97
2018-08-28T05:23:45.415Z,11.98
2018-08-28T05:24:45.336Z,12.03
2018-08-28T05:25:45.258Z,11.97
2018-08-28T05:26:45.181Z,11.98
2018-08-28T05:27:45.104Z,12.02
2018-08-28T05:28:45.025Z,12.08
2018-08-28T05:29:45.249Z,12.11
2018-08-28T05:30:44.873Z,12.09
2018-08-28T05:31:44.795Z,12.13
2018-08-28T05:32:44.713Z,12.11
2018-08-28T05:33:44.636Z,12.18
2018-08-28T05:34:44.559Z,12.16
2018-08-28T05:35:44.479Z,12.21
2018-08-28T05:36:44.403Z,12.27
2018-08-28T05:37:44.326Z,12.23
2018-08-28T05:38:44.247Z,12.13
2018-08-28T05:39:44.170Z,12.24
2018-08-28T05:40:44.093Z,12.28
2018-08-28T05:41:44.015Z,12.31
2018-08-28T05:42:43.937Z,12.41
2018-08-28T05:43:43.858Z,12.34
2018-08-28T05:44:43.781Z,12.49
2018-08-28T05:45:43.704Z,12.45
2018-08-28T05:46:43.627Z,12.51
2018-08-28T05:47:43.548Z,12.55
2018-08-28T05:48:43.472Z,12.66
2018-08-28T05:49:43.405Z,12.59
2018-08-28T05:50:43.318Z,12.64
2018-08-28T05:51:43.239Z,12.60
2018-08-28T05:52:43.163Z,12.74
2018-08-28T05:53:43.086Z,12.71
2018-08-28T05:54:43.009Z,12.77
2018-08-28T05:55:42.957Z,12.78
2018-08-28T05:56:42.855Z,12.85
2018-08-28T05:57:42.777Z,12.81
2018-08-28T05:58:42.706Z,12.92
2018-08-28T05:59:42.625Z,12.97
2018-08-28T06:00:42.545Z,12.97
2018-08-28T06:01:42.473Z,12.91
2018-08-28T06:02:42.394Z,13.02
2018-08-28T06:03:42.314Z,13.02
2018-08-28T06:04:42.240Z,13.02
2018-08-28T06:05:42.162Z,13.03
2018-08-28T06:06:42.085Z,13.09
2018-08-28T06:07:42.007Z,13.02
2018-08-28T06:08:41.980Z,13.06
2018-08-28T06:09:41.854Z,13.03
2018-08-28T06:10:41.777Z,13.18
2018-08-28T06:11:41.700Z,13.18
2018-08-28T06:12:41.623Z,13.22
2018-08-28T06:13:41.546Z,13.15
2018-08-28T06:14:41.481Z,13.29
2018-08-28T06:15:41.393Z,13.25
2018-08-28T06:16:41.316Z,13.36
2018-08-28T06:17:41.240Z,13.38
2018-08-28T06:18:41.164Z,13.43
2018-08-28T06:19:41.088Z,13.45
2018-08-28T06:20:41.010Z,13.56
2018-08-28T06:21:40.935Z,13.65
2018-08-28T06:22:40.858Z,13.73
2018-08-28T06:23:40.781Z,13.77
2018-08-28T06:24:40.705Z,13.76
2018-08-28T06:25:40.630Z,13.83
2018-08-28T06:26:40.553Z,13.84
2018-08-28T06:27:40.477Z,13.99
2018-08-28T06:28:40.401Z,14.02
2018-08-28T06:29:40.325Z,14.02
2018-08-28T06:30:40.248Z,14.01
2018-08-28T06:31:40.181Z,14.07
2018-08-28T06:32:40.096Z,14.14
2018-08-28T06:33:40.020Z,14.13
2018-08-28T06:34:39.944Z,14.23
2018-08-28T06:35:39.868Z,14.19
2018-08-28T06:36:39.792Z,14.21
2018-08-28T06:37:39.717Z,14.31
2018-08-28T06:38:39.642Z,14.29
2018-08-28T06:39:39.567Z,14.29
2018-08-28T06:40:39.490Z,14.34
2018-08-28T06:41:39.414Z,14.35
2018-08-28T06:42:39.339Z,14.38
2018-08-28T06:43:39.271Z,14.46
2018-08-28T06:44:39.186Z,14.46
2018-08-28T06:45:39.112Z,14.59
2018-08-28T06:46:39.036Z,14.60
2018-08-28T06:47:38.961Z,14.57
2018-08-28T06:48:38.886Z,14.61
2018-08-28T06:49:38.847Z,14.72
2018-08-28T06:50:38.734Z,14.80
2018-08-28T06:51:38.660Z,14.91
2018-08-28T06:52:38.587Z,14.85
2018-08-28T06:53:38.507Z,14.91
2018-08-28T06:54:38.438Z,14.95
2018-08-28T06:55:38.356Z,14.94
2018-08-28T06:56:38.306Z,15.03
2018-08-28T06:57:38.205Z,15.16
2018-08-28T06:58:38.131Z,15.16
2018-08-28T06:59:38.055Z,15.21
2018-08-28T07:00:37.980Z,15.20
2018-08-28T07:01:37.905Z,15.28
2018-08-28T07:02:37.831Z,15.39
2018-08-28T07:03:37.758Z,15.43
2018-08-28T07:04:37.679Z,15.53
2018-08-28T07:05:37.606Z,15.53
2018-08-28T07:06:37.530Z,15.60
2018-08-28T07:07:37.456Z,15.68
2018-08-28T07:08:37.379Z,15.70
2018-08-28T07:09:37.311Z,15.85
2018-08-28T07:10:37.230Z,15.82
2018-08-28T07:11:37.156Z,15.92
2018-08-28T07:12:37.081Z,15.92
2018-08-28T07:13:37.004Z,16.00
2018-08-28T07:14:36.932Z,16.01
2018-08-28T07:15:36.856Z,16.22
2018-08-28T07:16:36.782Z,16.30
2018-08-28T07:17:36.708Z,16.37
2018-08-28T07:18:36.681Z,16.48
2018-08-28T07:19:36.559Z,16.55
2018-08-28T07:20:36.485Z,16.62
2018-08-28T07:21:36.410Z,16.71
2018-08-28T07:22:36.335Z,16.66
2018-08-28T07:23:36.260Z,16.74
2018-08-28T07:24:36.187Z,16.82
2018-08-28T07:25:36.158Z,16.82
2018-08-28T07:26:36.038Z,16.81
2018-08-28T07:27:35.964Z,16.95
2018-08-28T07:28:35.888Z,17.05
2018-08-28T07:29:35.816Z,17.07
2018-08-28T07:30:35.743Z,17.23
2018-08-28T07:31:35.691Z,17.33
2018-08-28T07:32:35.593Z,17.28
2018-08-28T07:33:35.519Z,17.28
2018-08-28T07:34:35.446Z,17.29
2018-08-28T07:35:35.371Z,17.43
2018-08-28T07:36:35.298Z,17.38
2018-08-28T07:37:35.480Z,17.39
2018-08-28T07:38:35.151Z,17.57
2018-08-28T07:39:35.076Z,17.70
2018-08-28T07:40:35.003Z,17.69
2018-08-28T07:41:34.928Z,17.79
2018-08-28T07:42:34.854Z,17.88
2018-08-28T07:43:34.780Z,17.91
2018-08-28T07:44:34.707Z,17.92
2018-08-28T07:45:34.633Z,17.98
2018-08-28T07:46:34.560Z,17.95
2018-08-28T07:47:34.489Z,17.94
2018-08-28T07:48:34.413Z,18.04
2018-08-28T07:49:34.339Z,18.07
2018-08-28T07:50:34.267Z,18.11
2018-08-28T07:51:34.197Z,18.13
2018-08-28T07:52:34.120Z,18.22
2018-08-28T07:53:34.047Z,18.13
2018-08-28T07:54:33.973Z,18.21
2018-08-28T07:55:33.900Z,18.32
2018-08-28T07:56:33.827Z,18.42
2018-08-28T07:57:33.753Z,18.49
2018-08-28T07:58:33.679Z,18.58
2018-08-28T07:59:33.606Z,18.49
2018-08-28T08:00:33.533Z,18.64
2018-08-28T08:01:33.496Z,18.73
2018-08-28T08:02:33.387Z,18.74
2018-08-28T08:03:33.312Z,18.79
2018-08-28T08:04:33.239Z,18.95
2018-08-28T08:05:33.166Z,18.95
2018-08-28T08:06:33.092Z,18.95
2018-08-28T08:07:33.021Z,18.95
2018-08-28T08:08:32.946Z,18.99
2018-08-28T08:09:32.874Z,18.95
2018-08-28T08:10:32.807Z,18.98
2018-08-28T08:11:32.727Z,19.02
2018-08-28T08:12:32.653Z,19.06
2018-08-28T08:13:32.582Z,19.15
2018-08-28T08:14:32.509Z,19.24
2018-08-28T08:15:32.460Z,19.27
2018-08-28T08:16:32.362Z,19.27
2018-08-28T08:17:32.291Z,19.23
2018-08-28T08:18:32.217Z,19.25
2018-08-28T08:19:32.143Z,19.20
2018-08-28T08:20:32.072Z,19.25
2018-08-28T08:21:31.997Z,19.15
2018-08-28T08:22:31.925Z,18.99
2018-08-28T08:23:31.852Z,19.05
2018-08-28T08:24:31.779Z,19.09
2018-08-28T08:25:31.706Z,19.21
2018-08-28T08:26:31.632Z,19.35
2018-08-28T08:27:31.559Z,19.45
2018-08-28T08:28:31.487Z,19.48
2018-08-28T08:29:31.414Z,19.45
2018-08-28T08:30:31.341Z,19.45
2018-08-28T08:31:31.268Z,19.42
2018-08-28T08:32:31.195Z,19.43
2018-08-28T08:33:31.123Z,19.51
2018-08-28T08:34:31.050Z,19.57
2018-08-28T08:35:30.983Z,19.54
2018-08-28T08:36:30.910Z,19.51
2018-08-28T08:37:30.832Z,19.64
2018-08-28T08:38:30.761Z,19.69
2018-08-28T08:39:30.686Z,19.63
2018-08-28T08:40:30.614Z,19.61
2018-08-28T08:41:30.541Z,19.71
2018-08-28T08:42:30.470Z,19.73
2018-08-28T08:43:30.399Z,19.69
2018-08-28T08:44:30.324Z,19.72
2018-08-28T08:45:30.252Z,19.73
2018-08-28T08:46:30.178Z,19.60
2018-08-28T08:47:30.107Z,19.72
2018-08-28T08:48:30.033Z,19.75
2018-08-28T08:49:29.961Z,19.91
2018-08-28T08:50:29.888Z,20.00
2018-08-28T08:51:29.817Z,20.10
2018-08-28T08:52:29.746Z,20.12
2018-08-28T08:53:29.672Z,19.97
2018-08-28T08:54:29.599Z,19.95
2018-08-28T08:55:29.526Z,19.94
2018-08-28T08:56:29.458Z,19.87
2018-08-28T08:57:29.483Z,19.76
2018-08-28T08:58:29.310Z,19.78
2018-08-28T08:59:29.244Z,19.73
2018-08-28T09:00:29.166Z,19.87
2018-08-28T09:01:29.109Z,19.79
2018-08-28T09:02:29.022Z,19.79
2018-08-28T09:03:28.948Z,19.75
2018-08-28T09:04:28.876Z,19.75
2018-08-28T09:05:28.816Z,19.64
2018-08-28T09:06:28.734Z,19.58
2018-08-28T09:07:28.660Z,19.53
2018-08-28T09:08:28.588Z,19.40
2018-08-28T09:09:28.524Z,19.50
2018-08-28T09:10:28.443Z,19.45
2018-08-28T09:11:28.369Z,19.50
2018-08-28T09:12:28.297Z,19.57
2018-08-28T09:13:28.234Z,19.68
2018-08-28T09:14:28.155Z,19.57
2018-08-28T09:15:28.082Z,19.75
2018-08-28T09:16:28.009Z,19.71
2018-08-28T09:17:27.937Z,19.71
2018-08-28T09:18:27.865Z,19.68
2018-08-28T09:19:27.902Z,19.69
2018-08-28T09:20:27.720Z,19.61
2018-08-28T09:21:27.647Z,19.76
2018-08-28T09:22:27.576Z,19.87
2018-08-28T09:23:27.502Z,19.88
2018-08-28T09:24:27.431Z,19.93
2018-08-28T09:25:27.359Z,20.01
2018-08-28T09:26:27.287Z,20.06
2018-08-28T09:27:27.212Z,20.10
2018-08-28T09:28:27.142Z,20.10
2018-08-28T09:29:27.071Z,20.01
2018-08-28T09:30:26.998Z,20.08
2018-08-28T09:31:26.985Z,20.12
2018-08-28T09:32:26.882Z,20.13
2018-08-28T09:33:26.782Z,20.20
2018-08-28T09:34:26.710Z,20.15
2018-08-28T09:35:26.636Z,20.19
2018-08-28T09:36:26.565Z,20.28
2018-08-28T09:37:26.492Z,20.40
2018-08-28T09:38:26.500Z,20.56
2018-08-28T09:39:26.350Z,20.66
2018-08-28T09:40:26.277Z,20.69
2018-08-28T09:41:26.205Z,20.72
2018-08-28T09:42:26.132Z,20.59
2018-08-28T09:43:26.061Z,20.54
2018-08-28T09:44:25.989Z,20.61
2018-08-28T09:45:25.917Z,20.64
2018-08-28T09:46:25.846Z,20.57
2018-08-28T09:47:25.771Z,20.57
2018-08-28T09:48:25.779Z,20.51
2018-08-28T09:49:25.635Z,20.46
2018-08-28T09:50:25.617Z,20.53
2018-08-28T09:51:25.485Z,20.56
2018-08-28T09:52:25.415Z,20.68
2018-08-28T09:53:25.341Z,20.71
2018-08-28T09:54:25.269Z,20.68
2018-08-28T09:55:25.198Z,20.57
2018-08-28T09:56:25.166Z,20.59
2018-08-28T09:57:25.055Z,20.54
2018-08-28T09:58:24.986Z,20.76
2018-08-28T09:59:24.909Z,20.72
2018-08-28T10:00:24.838Z,20.62
2018-08-28T10:01:24.768Z,20.57
2018-08-28T10:02:24.695Z,20.54
2018-08-28T10:03:24.623Z,20.54
2018-08-28T10:04:24.560Z,20.54
2018-08-28T10:05:24.479Z,20.64
2018-08-28T10:06:24.408Z,20.89
2018-08-28T10:07:24.335Z,20.89
2018-08-28T10:08:24.263Z,21.09
2018-08-28T10:09:24.192Z,21.09
2018-08-28T10:10:24.120Z,21.21
2018-08-28T10:11:24.047Z,21.11
2018-08-28T10:12:23.979Z,21.16
2018-08-28T10:13:23.904Z,21.31
2018-08-28T10:14:23.834Z,21.42
2018-08-28T10:15:23.760Z,21.44
2018-08-28T10:16:23.689Z,21.45
2018-08-28T10:17:23.693Z,21.26
2018-08-28T10:18:23.545Z,21.11
2018-08-28T10:19:23.474Z,21.27
2018-08-28T10:20:23.402Z,21.35
2018-08-28T10:21:23.330Z,21.44
2018-08-28T10:22:23.259Z,21.53
2018-08-28T10:23:23.186Z,21.66
2018-08-28T10:24:23.115Z,21.53
2018-08-28T10:25:23.043Z,21.60
2018-08-28T10:26:22.975Z,21.69
2018-08-28T10:27:22.902Z,21.59
2018-08-28T10:28:22.830Z,21.51
2018-08-28T10:29:22.758Z,21.48
2018-08-28T10:30:22.817Z,21.30
2018-08-28T10:31:22.615Z,21.35
2018-08-28T10:32:22.544Z,21.35
2018-08-28T10:33:22.473Z,21.31
2018-08-28T10:34:22.401Z,21.20
2018-08-28T10:35:22.329Z,21.31
2018-08-28T10:36:22.258Z,21.30
2018-08-28T10:37:22.188Z,21.39
2018-08-28T10:38:22.120Z,21.45
2018-08-28T10:39:22.043Z,21.42
2018-08-28T10:40:21.972Z,21.59
2018-08-28T10:41:21.904Z,21.76
2018-08-28T10:42:21.829Z,21.60
2018-08-28T10:43:21.758Z,21.57
2018-08-28T10:44:21.687Z,21.76
2018-08-28T10:45:21.616Z,21.84
2018-08-28T10:46:21.610Z,21.86
2018-08-28T10:47:21.473Z,21.95
2018-08-28T10:48:21.402Z,21.81
2018-08-28T10:49:21.330Z,21.64
2018-08-28T10:50:21.263Z,21.70
2018-08-28T10:51:21.189Z,21.64
2018-08-28T10:52:21.116Z,21.61
2018-08-28T10:53:21.046Z,21.82
2018-08-28T10:54:20.974Z,21.94
2018-08-28T10:55:20.902Z,22.08
2018-08-28T10:56:20.832Z,22.28
2018-08-28T10:57:20.762Z,22.50
2018-08-28T10:58:20.691Z,22.79
2018-08-28T10:59:20.619Z,22.96
2018-08-28T11:00:20.549Z,23.26
2018-08-28T11:01:20.479Z,23.43
2018-08-28T11:02:20.408Z,23.56
2018-08-28T11:03:20.338Z,23.40
2018-08-28T11:04:20.331Z,23.60
2018-08-28T11:05:20.198Z,23.46
2018-08-28T11:06:20.129Z,23.56
2018-08-28T11:07:20.061Z,23.60
2018-08-28T11:08:19.987Z,23.64
2018-08-28T11:09:19.918Z,23.74
2018-08-28T11:10:19.848Z,23.75
2018-08-28T11:11:19.778Z,23.80
2018-08-28T11:12:19.709Z,23.80
2018-08-28T11:13:19.640Z,23.82
2018-08-28T11:14:19.569Z,24.00
2018-08-28T11:15:19.499Z,23.83
2018-08-28T11:16:19.432Z,23.38
2018-08-28T11:17:19.361Z,23.56
2018-08-28T11:18:19.293Z,23.58
2018-08-28T11:19:19.223Z,23.52
2018-08-28T11:20:19.154Z,23.49
2018-08-28T11:21:19.085Z,23.42
2018-08-28T11:22:19.026Z,23.63
2018-08-28T11:23:18.945Z,23.74
2018-08-28T11:24:18.876Z,23.71
2018-08-28T11:25:18.807Z,23.56
2018-08-28T11:26:18.740Z,23.52
2018-08-28T11:27:18.671Z,23.56
2018-08-28T11:28:18.606Z,23.82
2018-08-28T11:29:18.530Z,24.01
2018-08-28T11:30:18.461Z,24.08
2018-08-28T11:31:18.423Z,24.07
2018-08-28T11:32:18.323Z,24.34
2018-08-28T11:33:18.254Z,24.48
2018-08-28T11:34:18.190Z,24.64
2018-08-28T11:35:18.115Z,24.32
2018-08-28T11:36:18.046Z,24.45
2018-08-28T11:37:17.980Z,24.90
2018-08-28T11:38:17.955Z,25.62
2018-08-28T11:39:17.843Z,25.92
2018-08-28T11:40:17.774Z,25.59
2018-08-28T11:41:17.706Z,25.94
2018-08-28T11:42:17.639Z,26.11
2018-08-28T11:43:17.572Z,26.39
2018-08-28T11:44:17.510Z,27.07
2018-08-28T11:45:17.439Z,27.36
2018-08-28T11:46:17.373Z,27.24
2018-08-28T11:47:17.396Z,27.92
2018-08-28T11:48:17.242Z,28.09
2018-08-28T11:49:17.179Z,27.77
2018-08-28T11:50:17.111Z,27.67
2018-08-28T11:51:17.052Z,28.16
2018-08-28T11:52:17.042Z,28.63
2018-08-28T11:53:17.021Z,28.73
2018-08-28T11:54:16.856Z,28.47
2018-08-28T11:55:16.792Z,28.63
2018-08-28T11:56:16.729Z,29.01
2018-08-28T11:57:16.665Z,28.96
2018-08-28T11:58:16.605Z,28.90
2018-08-28T11:59:16.539Z,29.11
2018-08-28T12:00:16.482Z,29.44
2018-08-28T12:01:16.416Z,30.03
2018-08-28T12:02:16.353Z,30.55
2018-08-28T12:03:16.291Z,29.81
2018-08-28T12:04:16.234Z,29.68
2018-08-28T12:05:16.238Z,29.96
2018-08-28T12:06:16.108Z,30.26
2018-08-28T12:07:16.088Z,30.08
2018-08-28T12:08:15.987Z,29.99
2018-08-28T12:09:15.927Z,30.44
2018-08-28T12:10:15.867Z,31.04
2018-08-28T12:11:15.806Z,29.55
2018-08-28T12:12:15.746Z,28.66
2018-08-28T12:13:15.753Z,28.57
2018-08-28T12:14:15.627Z,29.34
2018-08-28T12:15:15.565Z,29.60
2018-08-28T12:16:15.505Z,29.80
2018-08-28T12:17:15.452Z,30.12
2018-08-28T12:18:15.388Z,30.22
2018-08-28T12:19:15.327Z,29.32
2018-08-28T12:20:15.314Z,29.06
2018-08-28T12:21:15.209Z,29.69
2018-08-28T12:22:15.147Z,29.29
2018-08-28T12:26:40.758Z,29.41
2018-08-28T12:27:40.660Z,29.80
2018-08-28T12:28:40.605Z,30.36
2018-08-28T12:29:40.626Z,30.67
2018-08-28T12:30:40.487Z,30.97
2018-08-28T12:31:40.429Z,31.20
2018-08-28T12:32:40.372Z,31.64
2018-08-28T12:33:40.314Z,31.51
2018-08-28T12:34:40.256Z,31.09
2018-08-28T12:35:40.203Z,30.99
2018-08-28T12:36:40.203Z,31.33
2018-08-28T12:37:40.086Z,31.02
2018-08-28T12:38:40.032Z,30.57
2018-08-28T12:39:39.973Z,30.22
2018-08-28T12:40:39.917Z,30.29
2018-08-28T12:41:39.860Z,30.62
2018-08-28T12:42:39.818Z,30.87
2018-08-28T12:43:39.749Z,30.99
2018-08-28T12:44:39.692Z,31.01
2018-08-28T12:45:39.634Z,31.33
2018-08-28T12:46:39.580Z,30.79
2018-08-28T12:47:39.527Z,30.79
2018-08-28T12:48:39.468Z,31.05
2018-08-28T12:49:39.414Z,30.57
2018-08-28T12:50:39.356Z,30.12
2018-08-28T12:51:39.300Z,29.48
2018-08-28T12:52:39.244Z,29.53
2018-08-28T12:53:39.187Z,30.12
2018-08-28T12:54:39.131Z,30.27